createdAt,value
2023-04-19T00:01:07.459Z,100.00
2023-04-19T00:03:56.313Z,100.00
2023-04-19T00:06:42.550Z,100.00
2023-04-19T00:09:28.693Z,100.00
2023-04-19T00:12:14.884Z,100.00
2023-04-19T00:15:01.492Z,100.00
2023-04-19T00:17:47.888Z,100.00
2023-04-19T00:20:34.288Z,100.00
2023-04-19T00:23:20.515Z,100.00
2023-04-19T00:26:06.759Z,100.00
2023-04-19T00:28:52.840Z,100.00
2023-04-19T00:31:40.000Z,100.00
2023-04-19T00:34:26.632Z,100.00
2023-04-19T00:37:15.403Z,100.00
2023-04-19T00:40:02.115Z,100.00
2023-04-19T00:42:48.524Z,100.00
2023-04-19T00:45:36.830Z,100.00
2023-04-19T00:48:23.481Z,100.00
2023-04-19T00:51:10.692Z,100.00
2023-04-19T00:53:58.123Z,100.00
2023-04-19T00:56:45.287Z,100.00
2023-04-19T00:59:31.779Z,100.00
2023-04-19T01:02:18.466Z,100.00
2023-04-19T01:05:05.299Z,100.00
2023-04-19T01:07:52.135Z,100.00
2023-04-19T01:10:38.243Z,100.00
2023-04-19T01:13:24.971Z,100.00
2023-04-19T01:16:11.604Z,100.00
2023-04-19T01:18:58.324Z,100.00
2023-04-19T01:21:46.336Z,100.00
2023-04-19T01:24:33.958Z,100.00
2023-04-19T01:27:20.549Z,100.00
2023-04-19T01:30:07.332Z,100.00
2023-04-19T01:32:53.525Z,100.00
2023-04-19T01:35:40.653Z,100.00
2023-04-19T01:38:27.280Z,100.00
2023-04-19T01:41:13.863Z,100.00
2023-04-19T01:44:00.951Z,100.00
2023-04-19T01:46:47.167Z,100.00
2023-04-19T01:49:33.474Z,100.00
2023-04-19T01:52:19.747Z,100.00
2023-04-19T01:55:08.430Z,100.00
2023-04-19T01:57:55.932Z,100.00
2023-04-19T02:00:42.814Z,100.00
2023-04-19T02:03:29.583Z,100.00
2023-04-19T02:06:15.978Z,100.00
2023-04-19T02:09:02.539Z,100.00
2023-04-19T02:11:48.928Z,100.00
2023-04-19T02:14:35.780Z,100.00
2023-04-19T02:17:22.421Z,100.00
2023-04-19T02:20:11.235Z,100.00
2023-04-19T02:22:57.844Z,100.00
2023-04-19T02:25:44.347Z,100.00
2023-04-19T02:28:31.693Z,100.00
2023-04-19T02:31:18.125Z,100.00
2023-04-19T02:34:04.741Z,100.00
2023-04-19T02:36:53.018Z,100.00
2023-04-19T02:39:42.562Z,100.00
2023-04-19T02:42:28.850Z,100.00
2023-04-19T02:45:15.286Z,100.00
2023-04-19T02:48:02.329Z,100.00
2023-04-19T02:50:48.800Z,100.00
2023-04-19T02:53:35.260Z,100.00
2023-04-19T02:56:21.863Z,100.00
2023-04-19T02:59:08.517Z,100.00
2023-04-19T03:01:55.212Z,100.00
2023-04-19T03:04:43.631Z,100.00
2023-04-19T03:07:29.976Z,100.00
2023-04-19T03:10:16.266Z,100.00
2023-04-19T03:13:02.516Z,100.00
2023-04-19T03:15:50.686Z,100.00
2023-04-19T03:18:40.880Z,100.00
2023-04-19T03:21:29.295Z,100.00
2023-04-19T03:24:16.227Z,100.00
2023-04-19T03:27:08.973Z,100.00
2023-04-19T03:29:56.199Z,100.00
2023-04-19T03:32:43.231Z,100.00
2023-04-19T03:35:32.454Z,100.00
2023-04-19T03:38:27.412Z,100.00
2023-04-19T03:41:23.343Z,100.00
2023-04-19T03:44:18.164Z,100.00
2023-04-19T03:47:05.332Z,100.00
2023-04-19T03:49:58.144Z,100.00
2023-04-19T03:52:44.488Z,100.00
2023-04-19T03:55:32.761Z,100.00
2023-04-19T03:58:20.720Z,100.00
2023-04-19T04:01:24.266Z,100.00
2023-04-19T04:04:12.770Z,100.00
2023-04-19T04:07:00.232Z,100.00
2023-04-19T04:09:48.296Z,100.00
2023-04-19T04:12:35.176Z,100.00
2023-04-19T04:15:23.774Z,100.00
2023-04-19T04:18:12.875Z,100.00
2023-04-19T04:20:59.610Z,100.00
2023-04-19T04:23:47.247Z,100.00
2023-04-19T04:26:42.278Z,100.00
2023-04-19T04:29:41.886Z,100.00
2023-04-19T04:32:29.285Z,100.00
2023-04-19T04:35:20.674Z,100.00
2023-04-19T04:38:23.970Z,100.00
2023-04-19T04:41:12.415Z,100.00
2023-04-19T04:44:12.063Z,100.00
2023-04-19T04:47:07.198Z,100.00
2023-04-19T04:50:00.673Z,100.00
2023-04-19T04:52:46.975Z,100.00
2023-04-19T04:55:38.495Z,100.00
2023-04-19T04:58:25.163Z,100.00
2023-04-19T05:01:19.474Z,100.00
2023-04-19T05:04:06.855Z,100.00
2023-04-19T05:06:53.347Z,100.00
2023-04-19T05:09:44.518Z,100.00
2023-04-19T05:12:34.136Z,100.00
2023-04-19T05:15:20.893Z,100.00
2023-04-19T05:18:11.110Z,100.00
2023-04-19T05:20:58.123Z,100.00
2023-04-19T05:23:49.008Z,100.00
2023-04-19T05:26:35.900Z,100.00
2023-04-19T05:29:24.592Z,100.00
2023-04-19T05:32:14.188Z,100.00
2023-04-19T05:35:05.850Z,100.00
2023-04-19T05:37:52.620Z,100.00
2023-04-19T05:40:40.093Z,100.00
2023-04-19T05:43:26.334Z,100.00
2023-04-19T05:46:12.576Z,100.00
2023-04-19T05:48:59.261Z,100.00
2023-04-19T05:52:03.634Z,100.00
2023-04-19T05:54:59.596Z,100.00
2023-04-19T05:57:46.627Z,100.00
2023-04-19T06:00:33.255Z,100.00
2023-04-19T06:03:29.998Z,100.00
2023-04-19T06:06:19.870Z,100.00
2023-04-19T06:09:07.056Z,100.00
2023-04-19T06:11:54.661Z,100.00
2023-04-19T06:14:41.104Z,100.00
2023-04-19T06:17:27.811Z,100.00
2023-04-19T06:20:14.200Z,100.00
2023-04-19T06:23:00.744Z,100.00
2023-04-19T06:25:49.852Z,100.00
2023-04-19T06:28:36.329Z,100.00
2023-04-19T06:31:22.724Z,100.00
2023-04-19T06:34:10.305Z,100.00
2023-04-19T06:36:56.758Z,100.00
2023-04-19T06:39:44.516Z,100.00
2023-04-19T06:42:30.954Z,100.00
2023-04-19T06:45:17.471Z,100.00
2023-04-19T06:48:04.612Z,100.00
2023-04-19T06:50:51.118Z,100.00
2023-04-19T06:53:37.910Z,99.43
2023-04-19T06:56:47.601Z,100.00
2023-04-19T06:59:35.226Z,100.00
2023-04-19T07:02:21.638Z,100.00
2023-04-19T07:05:08.560Z,100.00
2023-04-19T07:07:54.655Z,100.00
2023-04-19T07:10:43.702Z,100.00
2023-04-19T07:13:30.133Z,100.00
2023-04-19T07:16:16.727Z,100.00
2023-04-19T07:19:03.256Z,100.00
2023-04-19T07:21:50.750Z,100.00
2023-04-19T07:24:40.137Z,100.00
2023-04-19T07:27:26.930Z,100.00
2023-04-19T07:30:13.077Z,99.08
2023-04-19T07:32:59.651Z,97.35
2023-04-19T07:35:46.051Z,92.98
2023-04-19T07:38:32.306Z,91.25
2023-04-19T07:41:18.931Z,91.87
2023-04-19T07:44:05.458Z,92.61
2023-04-19T07:46:52.837Z,92.02
2023-04-19T07:49:39.196Z,94.21
2023-04-19T07:52:25.497Z,93.44
2023-04-19T07:55:11.859Z,88.60
2023-04-19T07:57:58.148Z,88.25
2023-04-19T08:00:44.327Z,88.23
2023-04-19T08:03:32.151Z,87.44
2023-04-19T08:06:19.035Z,87.19
2023-04-19T08:09:05.451Z,85.92
2023-04-19T08:11:53.562Z,88.11
2023-04-19T08:14:56.168Z,88.04
2023-04-19T08:17:47.202Z,84.85
2023-04-19T08:20:34.157Z,82.60
2023-04-19T08:23:24.506Z,83.29
2023-04-19T08:26:15.889Z,83.85
2023-04-19T08:29:02.404Z,83.04
2023-04-19T08:31:49.390Z,82.74
2023-04-19T08:34:39.113Z,83.70
2023-04-19T08:37:25.504Z,83.37
2023-04-19T08:40:11.864Z,82.08
2023-04-19T08:42:58.765Z,84.78
2023-04-19T08:45:50.539Z,85.17
2023-04-19T08:48:37.431Z,86.23
2023-04-19T08:51:24.080Z,85.96
2023-04-19T08:54:11.183Z,84.58
2023-04-19T08:57:03.305Z,84.30
2023-04-19T08:59:55.552Z,82.96
2023-04-19T09:02:50.681Z,80.78
2023-04-19T09:05:37.771Z,80.49
2023-04-19T09:08:29.053Z,76.88
2023-04-19T09:11:15.636Z,74.94
2023-04-19T09:14:13.694Z,77.73
2023-04-19T09:17:16.894Z,77.84
2023-04-19T09:20:04.742Z,80.15
2023-04-19T09:23:07.207Z,79.40
2023-04-19T09:29:07.685Z,79.39
2023-04-19T09:31:59.001Z,77.42
2023-04-19T09:34:56.200Z,77.03
2023-04-19T09:40:31.569Z,74.83
2023-04-19T09:43:57.881Z,72.18
2023-04-19T09:46:37.112Z,70.71
2023-04-19T09:49:41.277Z,70.82
2023-04-19T09:52:33.439Z,69.36
2023-04-19T09:58:10.691Z,69.45
2023-04-19T10:01:10.710Z,67.63
2023-04-19T10:04:10.316Z,67.97
2023-04-19T10:07:29.329Z,66.09
2023-04-19T10:10:20.947Z,69.68
2023-04-19T10:16:15.821Z,72.02
2023-04-19T10:19:10.623Z,72.84
2023-04-19T10:21:57.602Z,74.07
2023-04-19T10:25:13.938Z,73.19
2023-04-19T10:28:00.545Z,73.82
2023-04-19T10:30:55.657Z,74.01
2023-04-19T10:33:42.244Z,76.87
2023-04-19T10:36:29.247Z,77.99
2023-04-19T10:39:39.476Z,78.42
2023-04-19T10:43:04.154Z,78.54
2023-04-19T10:45:51.376Z,78.61
2023-04-19T10:48:40.326Z,80.43
2023-04-19T10:51:36.287Z,80.35
2023-04-19T10:54:37.491Z,83.07
2023-04-19T10:57:25.378Z,83.81
2023-04-19T11:00:22.055Z,84.35
2023-04-19T11:03:45.846Z,86.18
2023-04-19T11:06:33.963Z,87.12
2023-04-19T11:09:27.428Z,87.15
2023-04-19T11:12:15.986Z,88.75
2023-04-19T11:15:03.173Z,89.73
2023-04-19T11:18:04.721Z,90.84
2023-04-19T11:20:54.650Z,92.96
2023-04-19T11:23:41.292Z,93.54
2023-04-19T11:26:27.648Z,94.69
2023-04-19T11:29:14.568Z,95.76
2023-04-19T11:32:01.419Z,95.42
2023-04-19T11:34:48.039Z,98.13
2023-04-19T11:37:36.445Z,99.99
2023-04-19T11:40:25.935Z,100.00
2023-04-19T11:43:12.416Z,100.00
2023-04-19T11:46:08.240Z,100.00
2023-04-19T11:48:54.821Z,100.00
2023-04-19T11:51:43.395Z,100.00
2023-04-19T11:54:29.638Z,100.00
2023-04-19T11:57:15.921Z,100.00
2023-04-19T12:00:12.385Z,100.00
2023-04-19T12:02:59.650Z,100.00
2023-04-19T12:05:57.700Z,100.00
2023-04-19T12:08:47.192Z,100.00
2023-04-19T12:11:46.578Z,100.00
2023-04-19T12:14:33.290Z,100.00
2023-04-19T12:17:19.373Z,100.00
2023-04-19T12:20:06.360Z,100.00
2023-04-19T12:22:52.839Z,100.00
2023-04-19T12:25:40.241Z,100.00
2023-04-19T12:28:26.703Z,100.00
2023-04-19T12:31:12.893Z,100.00
2023-04-19T12:33:59.178Z,100.00
2023-04-19T12:36:45.684Z,100.00
2023-04-19T12:39:32.223Z,100.00
2023-04-19T12:42:18.506Z,100.00
2023-04-19T12:45:05.444Z,100.00
2023-04-19T12:47:51.895Z,100.00
2023-04-19T12:50:38.173Z,100.00
2023-04-19T12:53:25.280Z,99.86
2023-04-19T12:56:12.531Z,99.73
2023-04-19T12:58:58.918Z,99.80
2023-04-19T13:01:45.106Z,99.38
2023-04-19T13:04:31.547Z,100.00
2023-04-19T13:07:18.311Z,100.00
2023-04-19T13:10:04.862Z,99.56
2023-04-19T13:12:51.397Z,99.71
2023-04-19T13:15:38.342Z,97.49
2023-04-19T13:18:24.565Z,97.04
2023-04-19T13:21:11.145Z,95.76
2023-04-19T13:24:00.713Z,96.41
2023-04-19T13:26:47.341Z,97.73
2023-04-19T13:29:33.733Z,95.58
2023-04-19T13:32:20.038Z,92.38
2023-04-19T13:35:06.673Z,92.70
2023-04-19T13:37:53.098Z,91.38
2023-04-19T13:40:39.392Z,88.44
2023-04-19T13:43:25.694Z,88.47
2023-04-19T13:46:12.246Z,88.10
2023-04-19T13:48:58.465Z,87.26
2023-04-19T13:51:50.070Z,86.69
2023-04-19T13:54:36.660Z,87.92
2023-04-19T13:57:23.035Z,90.12
2023-04-19T14:00:09.765Z,92.25
2023-04-19T14:02:56.898Z,93.12
2023-04-19T14:05:43.644Z,92.81
2023-04-19T14:08:30.153Z,91.65
2023-04-19T14:11:16.565Z,92.47
2023-04-19T14:14:02.913Z,94.37
2023-04-19T14:16:49.698Z,92.91
2023-04-19T14:19:36.821Z,93.08
2023-04-19T14:22:23.254Z,89.78
2023-04-19T14:25:10.071Z,90.33
2023-04-19T14:27:56.721Z,90.17
2023-04-19T14:30:43.087Z,89.17
2023-04-19T14:33:29.708Z,85.67
2023-04-19T14:36:16.128Z,84.14
2023-04-19T14:39:02.696Z,86.22
2023-04-19T14:41:49.245Z,81.89
2023-04-19T14:44:35.814Z,81.90
2023-04-19T14:47:22.373Z,81.97
2023-04-19T14:50:09.628Z,81.04
2023-04-19T14:52:56.146Z,80.51
2023-04-19T14:55:42.336Z,79.62
2023-04-19T14:58:28.539Z,77.82
2023-04-19T15:01:15.676Z,77.71
2023-04-19T15:04:02.189Z,79.04
2023-04-19T15:06:48.688Z,76.01
2023-04-19T15:09:34.866Z,77.86
2023-04-19T15:12:21.109Z,83.17
2023-04-19T15:15:08.196Z,84.15
2023-04-19T15:17:54.462Z,84.30
2023-04-19T15:20:44.215Z,85.29
2023-04-19T15:23:30.510Z,84.13
2023-04-19T15:26:16.976Z,85.93
2023-04-19T15:29:03.455Z,81.92
2023-04-19T15:31:49.900Z,85.37
2023-04-19T15:34:36.270Z,82.28
2023-04-19T15:37:22.713Z,84.96
2023-04-19T15:40:11.512Z,85.48
2023-04-19T15:42:58.185Z,82.89
2023-04-19T15:45:44.583Z,83.86
2023-04-19T15:48:30.962Z,83.71
2023-04-19T15:51:17.586Z,83.32
2023-04-19T15:54:03.837Z,83.54
2023-04-19T15:56:50.287Z,82.49
2023-04-19T15:59:36.964Z,79.14
2023-04-19T16:02:23.374Z,81.95
2023-04-19T16:05:09.684Z,79.96
2023-04-19T16:08:04.462Z,83.43
2023-04-19T16:10:51.216Z,82.36
2023-04-19T16:13:37.771Z,79.24
2023-04-19T16:16:26.644Z,80.34
2023-04-19T16:19:13.348Z,62.86
2023-04-19T16:22:02.154Z,64.35
2023-04-19T16:24:48.897Z,64.71
2023-04-19T16:27:35.670Z,72.66
2023-04-19T16:30:23.551Z,52.01
2023-04-19T16:33:09.881Z,47.77
2023-04-19T16:35:56.281Z,45.46
2023-04-19T16:38:42.890Z,45.05
2023-04-19T16:41:29.813Z,44.79
2023-04-19T16:44:16.336Z,44.89
2023-04-19T16:47:02.763Z,45.34
2023-04-19T16:49:50.399Z,46.44
2023-04-19T16:52:36.750Z,46.27
2023-04-19T16:55:22.981Z,46.39
2023-04-19T16:58:09.445Z,43.55
2023-04-19T17:00:58.197Z,42.29
2023-04-19T17:12:43.861Z,44.42
2023-04-19T17:15:31.458Z,45.61
2023-04-19T17:18:18.282Z,45.46
2023-04-19T17:21:04.797Z,45.36
2023-04-19T17:23:51.529Z,43.55
2023-04-19T17:26:38.095Z,44.64
2023-04-19T17:29:24.494Z,44.15
2023-04-19T17:32:11.187Z,45.08
2023-04-19T17:34:57.607Z,44.80
2023-04-19T17:37:44.427Z,44.34
2023-04-19T17:40:31.144Z,45.29
2023-04-19T17:43:17.652Z,44.84
2023-04-19T17:46:05.602Z,44.96
2023-04-19T17:48:52.162Z,46.28
2023-04-19T17:51:39.079Z,46.90
2023-04-19T17:54:25.355Z,46.88
2023-04-19T17:57:11.777Z,46.96
2023-04-19T17:59:58.427Z,47.36
2023-04-19T18:02:44.745Z,48.45
2023-04-19T18:05:31.518Z,48.35
2023-04-19T18:08:17.926Z,49.21
2023-04-19T18:11:04.305Z,50.31
2023-04-19T18:13:50.715Z,50.26
2023-04-19T18:16:37.165Z,50.14
2023-04-19T18:19:25.404Z,51.03
2023-04-19T18:22:11.849Z,51.57
2023-04-19T18:24:58.128Z,52.05
2023-04-19T18:27:44.905Z,51.38
2023-04-19T18:30:31.830Z,52.72
2023-04-19T18:33:18.196Z,52.71
2023-04-19T18:36:07.565Z,53.06
2023-04-19T18:38:53.838Z,53.70
2023-04-19T18:41:40.389Z,54.10
2023-04-19T18:44:49.689Z,54.70
2023-04-19T18:47:33.044Z,55.21
2023-04-19T18:50:19.695Z,55.61
2023-04-19T18:53:06.240Z,55.73
2023-04-19T18:55:57.539Z,56.15
2023-04-19T18:58:44.160Z,56.52
2023-04-19T19:01:33.132Z,57.31
2023-04-19T19:04:42.913Z,57.75
2023-04-19T19:07:36.379Z,58.62
2023-04-19T19:10:41.321Z,58.86
2023-04-19T19:13:30.211Z,59.46
2023-04-19T19:16:18.432Z,59.60
2023-04-19T19:19:09.240Z,59.74
2023-04-19T19:21:56.077Z,60.77
2023-04-19T19:24:42.568Z,61.56
2023-04-19T19:27:29.309Z,61.73
2023-04-19T19:30:15.779Z,62.67
2023-04-19T19:33:04.415Z,63.86
2023-04-19T19:35:50.794Z,64.39
2023-04-19T19:38:37.520Z,65.38
2023-04-19T19:41:58.694Z,65.90
2023-04-19T19:44:30.496Z,66.64
2023-04-19T19:47:17.184Z,66.82
2023-04-19T19:50:50.889Z,67.74
2023-04-19T19:53:12.567Z,69.14
2023-04-19T19:55:59.779Z,70.26
2023-04-19T19:58:50.251Z,72.84
2023-04-19T20:01:37.971Z,75.12
2023-04-19T20:04:24.813Z,77.30
2023-04-19T20:10:01.814Z,73.54
2023-04-19T20:12:48.522Z,73.60
2023-04-19T20:15:36.424Z,74.69
2023-04-19T20:18:22.798Z,76.80
2023-04-19T20:21:09.598Z,78.05
2023-04-19T20:23:56.048Z,78.39
2023-04-19T20:26:42.449Z,79.74
2023-04-19T20:29:28.811Z,79.84
2023-04-19T20:32:15.233Z,79.03
2023-04-19T20:35:09.375Z,78.40
2023-04-19T20:38:02.190Z,76.49
2023-04-19T20:40:48.500Z,76.13
2023-04-19T20:43:34.666Z,78.23
2023-04-19T20:46:21.995Z,81.24
2023-04-19T20:49:08.815Z,83.55
2023-04-19T20:51:55.184Z,83.90
2023-04-19T20:54:41.412Z,86.01
2023-04-19T20:57:27.674Z,87.80
2023-04-19T21:00:16.721Z,90.40
2023-04-19T21:03:04.992Z,89.53
2023-04-19T21:05:51.809Z,89.71
2023-04-19T21:08:38.149Z,91.18
2023-04-19T21:11:24.525Z,92.91
2023-04-19T21:14:10.742Z,87.14
2023-04-19T21:16:57.044Z,83.89
2023-04-19T21:19:43.433Z,81.40
2023-04-19T21:22:29.843Z,81.21
2023-04-19T21:25:16.335Z,81.18
2023-04-19T21:28:02.740Z,82.26
2023-04-19T21:30:49.084Z,87.29
2023-04-19T21:33:35.688Z,85.43
2023-04-19T21:36:22.476Z,83.67
2023-04-19T21:39:10.127Z,80.16
2023-04-19T21:41:57.489Z,79.17
2023-04-19T21:44:43.943Z,77.89
2023-04-19T21:47:31.852Z,77.67
2023-04-19T21:50:18.644Z,78.08
2023-04-19T21:53:04.823Z,80.98
2023-04-19T21:55:51.381Z,89.96
2023-04-19T21:58:37.717Z,94.73
2023-04-19T22:01:24.032Z,97.30
2023-04-19T22:04:12.035Z,100.00
2023-04-19T22:07:02.108Z,100.00
2023-04-19T22:09:48.922Z,100.00
2023-04-19T22:12:38.796Z,100.00
2023-04-19T22:15:29.599Z,100.00
2023-04-19T22:18:16.084Z,100.00
2023-04-19T22:21:02.295Z,100.00
2023-04-19T22:23:48.812Z,100.00
2023-04-19T22:26:36.090Z,100.00
2023-04-19T22:29:22.523Z,100.00
2023-04-19T22:32:08.895Z,100.00
2023-04-19T22:34:55.385Z,100.00
2023-04-19T22:37:41.557Z,100.00
2023-04-19T22:40:27.903Z,100.00
2023-04-19T22:43:14.273Z,100.00
2023-04-19T22:46:01.123Z,100.00
2023-04-19T22:48:48.208Z,100.00
2023-04-19T22:51:34.832Z,100.00
2023-04-19T22:54:21.086Z,100.00
2023-04-19T22:57:07.348Z,100.00
2023-04-19T22:59:53.490Z,100.00
2023-04-19T23:02:39.722Z,100.00
2023-04-19T23:05:29.621Z,100.00
2023-04-19T23:08:16.153Z,100.00
2023-04-19T23:11:02.507Z,100.00
2023-04-19T23:13:48.939Z,100.00
2023-04-19T23:16:35.624Z,100.00
2023-04-19T23:19:22.775Z,100.00
2023-04-19T23:22:09.393Z,100.00
2023-04-19T23:24:56.172Z,100.00
2023-04-19T23:27:42.641Z,100.00
2023-04-19T23:30:29.689Z,100.00
2023-04-19T23:33:16.086Z,100.00
2023-04-19T23:36:02.781Z,100.00
2023-04-19T23:38:49.275Z,100.00
2023-04-19T23:41:35.882Z,100.00
2023-04-19T23:44:22.274Z,100.00
2023-04-19T23:47:08.648Z,100.00
2023-04-19T23:49:55.267Z,100.00
2023-04-19T23:52:41.564Z,100.00
2023-04-19T23:55:27.864Z,100.00
2023-04-19T23:58:14.275Z,100.00
